Fire Weather Observation
Issued by NWS Grand Junction, CO

Home | Current Version | Previous Version | Graphics & Text | Print | Product List | Glossary On
Versions: 1 2 3 4 5 6 7 8 9 10 11 12 13 14 15 16 17 18 19 20 21 22 23 24 25 26 27 28 29 30 31 32 33 34 35 36 37 38 39 40 41 42 43 44 45 46 47 48 49 50
000
SHUS65 KGJT 212014
FWOGJT

DAILY FIRE WEATHER OBSERVATION
NATIONAL WEATHER SERVICE GRAND JUNCTION CO
212 PM MDT THU AUG 21 2014

STATE OF THE WEATHER (W)               3
DRY BULB TEMPERATURE                   76   DEGREES FAHRENHEIT
RELATIVE HUMIDITY (RH)                 33   PERCENT
LIGHTNING ACTIVITY LEVEL
  (LAL - MIDNIGHT TO 2 PM)             1
WIND DIRECTION                         315  DEGREES (C IF CALM)
WIND SPEED                             6    MPH
MAX TEMP (2 PM - 2 PM)                 82   DEGREES FAHRENHEIT
MIN TEMP (2 PM - 2 PM)                 54   DEGREES FAHRENHEIT
MAX RH (2 PM - 2 PM)                   87   PERCENT
MIN RH (2 PM - 2 PM)                   32   PERCENT
PCPN DURATION                          0.3  HOURS
PCPN AMT (2 PM - 2 PM)                 T    INCHES
LAL (2 PM - 2 PM)                      2

$$

METAR KGJT 211953Z 30005KT 10SM CLR 24/07 A3012 RMK AO2 SLP144
      T02440072



USA.gov is the U.S. government's official web portal to all federal, state and local government web resources and services.